Weather reports worldwide

Advertisment
Coventry/Coundon, United Kingdom (99070): temperature & dewpoint: 30.05.2020 07:00:00 - 05.06.2020 07:00:00 (BST)Coventry/Coundon, United Kingdom (99070): temperature -20cm & temperature -100cm: 30.05.2020 07:00:00 - 05.06.2020 07:00:00 (BST)Coventry/Coundon, United Kingdom (99070): wind speed: 30.05.2020 07:00:00 - 05.06.2020 07:00:00 (BST)Coventry/Coundon, United Kingdom (99070): wind direction: 30.05.2020 07:00:00 - 05.06.2020 07:00:00 (BST)Coventry/Coundon, United Kingdom (99070): sunshine duration: 30.05.2020 07:00:00 - 05.06.2020 07:00:00 (BST)Coventry/Coundon, United Kingdom (99070): precipitation: 30.05.2020 07:00:00 - 05.06.2020 07:00:00 (BST)
Date & Time tt [°C] td [°C] tt -20cm [°C] tt -100cm [°C] ff [km/h] ff [kn] dd sd [min] rr [mm]
05.06.2020 07:00:00 - - - - - - - - -
05.06.2020 06:00:00 9,0 5,0 - - 13 7 W 0 0,0
05.06.2020 05:00:00 8,7 5,6 - - 9 5 W 0 0,0
05.06.2020 04:00:00 8,8 6,5 - - 9 5 W 0 0,0
05.06.2020 03:00:00 9,3 7,4 - - 9 5 WNW 0 0,0
05.06.2020 02:00:00 9,9 8,8 - - 5 3 W 0 0,0
05.06.2020 01:00:00 10,2 9,6 - - 8 4 W - 0,2
05.06.2020 00:00:00 10,4 9,5 - - 8 4 WSW 0 0,0
04.06.2020 23:00:00 10,6 9,9 - - 4 2 WSW 0 0,4
04.06.2020 22:00:00 10,6 9,8 - - 8 4 NE 0 2,0
04.06.2020 21:00:00 11,0 9,5 - - 5 3 W 0 0,0
04.06.2020 20:00:00 11,2 9,5 - - 8 4 W 0 0,8
04.06.2020 19:00:00 12,1 8,1 - - 8 4 WSW 0 0,0
04.06.2020 18:00:00 12,3 7,8 - - 9 5 WSW 0 0,0
04.06.2020 17:00:00 13,1 7,5 - - 8 4 NW 6 0,0
04.06.2020 16:00:00 12,7 5,8 - - 13 7 NW 0 0,0
04.06.2020 15:00:00 12,3 5,1 - - 11 6 NW 6 0,0
04.06.2020 14:00:00 12,1 7,0 - - 4 2 WSW 6 0,0
04.06.2020 13:00:00 11,8 8,8 - - 5 3 NW 0 0,0
04.06.2020 12:00:00 10,2 7,8 - - 9 5 W 0 0,0
04.06.2020 11:00:00 11,0 5,3 - - 8 4 W 0 0,0
04.06.2020 10:00:00 10,6 5,8 15,4 13,7 8 4 NW 0 0,0
04.06.2020 09:00:00 9,5 6,2 - - 9 5 NW 0 0,0
04.06.2020 08:00:00 9,0 5,9 - - 11 6 N 0 0,0
04.06.2020 07:00:00 8,8 6,8 - - 9 5 NNW 0 0,0
04.06.2020 06:00:00 8,7 7,1 - - 9 5 NNW 0 0,0
04.06.2020 05:00:00 8,1 6,4 - - 9 5 N 0 0,0
04.06.2020 04:00:00 8,5 6,9 - - 11 6 NNW 0 0,0
04.06.2020 03:00:00 8,2 6,2 - - 13 7 NNW 0 0,0
04.06.2020 02:00:00 9,1 6,1 - - 13 7 N 0 0,0
04.06.2020 01:00:00 9,6 6,8 - - 11 6 N - 0,0
04.06.2020 00:00:00 9,6 7,5 - - 9 5 NNW 0 0,0
03.06.2020 23:00:00 9,9 7,1 - - 13 7 N 0 0,0
03.06.2020 22:00:00 10,0 8,0 - - 15 8 N 0 0,0
03.06.2020 21:00:00 10,1 8,7 - - 13 7 N 0 0,0
03.06.2020 20:00:00 10,2 8,9 - - 18 10 NNE 0 0,0
03.06.2020 19:00:00 10,6 9,4 - - 21 11 N 0 0,2
03.06.2020 18:00:00 11,7 10,4 - - 15 8 NNE 0 0,2
03.06.2020 17:00:00 12,5 9,9 - - 16 9 NNE 0 0,0
03.06.2020 16:00:00 12,9 10,9 - - 15 8 NE 0 0,0
03.06.2020 15:00:00 12,6 11,1 - - 13 7 NNE 0 0,2
03.06.2020 14:00:00 13,4 11,1 - - 13 7 NNE 0 0,2
03.06.2020 13:00:00 13,6 10,4 - - 16 9 NE 0 0,0
03.06.2020 12:00:00 14,0 11,0 - - 15 8 NE 0 0,0
03.06.2020 11:00:00 13,8 10,1 - - 16 9 NNE 0 0,0
03.06.2020 10:00:00 13,1 9,3 16,4 13,7 15 8 NE 0 0,0
03.06.2020 09:00:00 12,8 8,4 - - 13 7 NNE 0 0,0
03.06.2020 08:00:00 13,3 8,9 - - 9 5 NNE 0 0,2
03.06.2020 07:00:00 12,9 9,1 - - 9 5 NE 0 0,0
03.06.2020 06:00:00 14,2 8,8 - - 4 2 N 0 0,0
03.06.2020 05:00:00 14,8 8,3 - - 5 3 N 0 0,0
03.06.2020 04:00:00 15,4 7,9 - - 8 4 NNW 0 0,0
03.06.2020 03:00:00 15,7 8,4 - - 8 4 NW 0 0,0
03.06.2020 02:00:00 15,9 8,3 - - 9 5 NW 0 0,0
03.06.2020 01:00:00 16,6 8,5 - - 9 5 NW - 0,0
03.06.2020 00:00:00 17,3 8,4 - - 8 4 NW 0 0,0
02.06.2020 23:00:00 17,8 8,0 - - 8 4 WNW 0 0,0
02.06.2020 22:00:00 18,9 7,4 - - 9 5 NW 0 0,0
02.06.2020 21:00:00 20,6 6,7 - - 11 6 NW 12 0,0
02.06.2020 20:00:00 22,0 5,1 - - 11 6 NNW 42 0,0
02.06.2020 19:00:00 23,4 3,8 - - 11 6 NW 54 0,0
02.06.2020 18:00:00 23,4 5,0 - - 9 5 N 60 0,0
02.06.2020 17:00:00 23,6 4,8 - - 11 6 NNW 60 0,0
02.06.2020 16:00:00 23,3 4,3 - - 11 6 NNW 60 0,0
02.06.2020 15:00:00 22,4 2,1 - - 9 5 N 60 0,0
02.06.2020 14:00:00 21,0 2,3 - - 9 5 N 54 0,0
02.06.2020 13:00:00 21,0 4,7 - - 9 5 NNW 36 0,0
02.06.2020 12:00:00 20,5 6,5 - - 9 5 N 60 0,0
02.06.2020 11:00:00 19,3 7,1 - - 9 5 N 60 -
02.06.2020 10:00:00 - - - - - - - - -
02.06.2020 09:00:00 - - - - - - - - -
02.06.2020 08:00:00 12,9 9,0 - - 5 3 N 60 0,0
02.06.2020 07:00:00 11,6 9,0 - - 5 3 N 36 0,0
02.06.2020 06:00:00 9,5 7,7 - - 5 3 N 0 0,0
02.06.2020 05:00:00 9,6 7,6 - - 8 4 NNE 0 0,0
02.06.2020 04:00:00 10,1 7,6 - - 8 4 NNE 0 0,0
02.06.2020 03:00:00 10,3 7,2 - - 8 4 N 0 0,0
02.06.2020 02:00:00 11,6 6,7 - - 8 4 NNE 0 0,0
02.06.2020 01:00:00 12,6 6,5 - - 9 5 ENE - 0,0
02.06.2020 00:00:00 13,9 6,1 - - 11 6 ENE 0 0,0
01.06.2020 23:00:00 15,5 7,5 - - 11 6 ENE 0 0,0
01.06.2020 22:00:00 17,2 8,6 - - 11 6 ENE 0 0,0
01.06.2020 21:00:00 19,3 8,8 - - 13 7 E 18 0,0
01.06.2020 20:00:00 20,4 8,8 - - 11 6 ENE 24 0,0
01.06.2020 19:00:00 22,5 8,2 - - 11 6 ENE 42 0,0
01.06.2020 18:00:00 22,9 7,6 - - 11 6 E 42 0,0
01.06.2020 17:00:00 23,0 6,9 - - 9 5 ENE 48 0,0
01.06.2020 16:00:00 23,2 7,8 - - 13 7 ENE 54 0,0
01.06.2020 15:00:00 23,0 8,5 - - 13 7 E 54 0,0
01.06.2020 14:00:00 21,4 8,8 - - 11 6 E 42 0,0
01.06.2020 13:00:00 21,7 8,9 - - 11 6 ENE 48 0,0
01.06.2020 12:00:00 20,1 8,1 - - 13 7 E 60 0,0
01.06.2020 11:00:00 19,8 8,4 - - 13 7 NE 60 0,0
01.06.2020 10:00:00 18,5 8,7 15,9 13,4 13 7 NE 60 0,0
01.06.2020 09:00:00 16,8 9,3 - - 13 7 NE 60 0,0
01.06.2020 08:00:00 14,5 8,8 - - 13 7 NE 60 0,0
01.06.2020 07:00:00 12,7 8,5 - - 11 6 NNE 60 0,0
01.06.2020 06:00:00 10,3 7,3 - - 8 4 NNE 18 0,0
01.06.2020 05:00:00 9,7 7,1 - - 8 4 NNE 0 0,0
01.06.2020 04:00:00 10,3 6,7 - - 9 5 NE 0 0,0
01.06.2020 03:00:00 10,9 6,4 - - 11 6 NE 0 0,0
01.06.2020 02:00:00 11,8 6,4 - - 11 6 NE 0 0,0
01.06.2020 01:00:00 12,8 6,4 - - 13 7 ENE - 0,0
01.06.2020 00:00:00 13,9 6,4 - - 11 6 ENE 0 0,0
31.05.2020 23:00:00 15,6 5,5 - - 11 6 E 0 0,0
31.05.2020 22:00:00 16,9 6,5 - - 13 7 E 0 0,0
31.05.2020 21:00:00 18,8 6,2 - - 18 10 E 36 0,0
31.05.2020 20:00:00 20,6 6,6 - - 21 11 ENE 48 0,0
31.05.2020 19:00:00 21,1 5,4 - - 15 8 E 42 0,0
31.05.2020 18:00:00 21,7 5,1 - - 18 10 E 48 0,0
31.05.2020 17:00:00 22,1 6,2 - - 18 10 E 30 0,0
31.05.2020 16:00:00 24,0 6,1 - - 16 9 E 54 0,0
31.05.2020 15:00:00 23,2 6,5 - - 16 9 E 48 0,0
31.05.2020 14:00:00 23,4 6,1 - - 15 8 ESE 54 0,0
31.05.2020 13:00:00 21,8 6,4 - - 15 8 ESE 54 0,0
31.05.2020 12:00:00 21,4 10,8 - - 16 9 E 60 0,0
31.05.2020 11:00:00 19,8 11,2 - - 15 8 E 60 0,0
31.05.2020 10:00:00 17,9 11,4 15,7 13,2 13 7 NE 60 0,0
31.05.2020 09:00:00 15,3 10,4 - - 15 8 NE 60 0,0
31.05.2020 08:00:00 13,4 9,7 - - 16 9 ENE 60 0,0
31.05.2020 07:00:00 11,6 8,7 - - 15 8 ENE 60 0,0
31.05.2020 06:00:00 10,5 7,0 - - 13 7 NE 12 0,0
31.05.2020 05:00:00 10,2 6,3 - - 13 7 NE 0 0,0
31.05.2020 04:00:00 10,5 7,2 - - 11 6 NE 0 0,0
31.05.2020 03:00:00 10,4 7,2 - - 8 4 NE 0 0,0
31.05.2020 02:00:00 11,6 6,4 - - 8 4 ENE 0 0,0
31.05.2020 01:00:00 13,4 6,6 - - 11 6 E - 0,0
31.05.2020 00:00:00 14,4 6,9 - - 11 6 E 0 0,0
30.05.2020 23:00:00 14,9 8,0 - - 9 5 ENE 0 0,0
30.05.2020 22:00:00 17,0 6,7 - - 13 7 ENE 0 0,0
30.05.2020 21:00:00 19,5 4,2 - - 13 7 E 30 0,0
30.05.2020 20:00:00 21,1 5,1 - - 16 9 E 60 0,0
30.05.2020 19:00:00 22,0 8,1 - - 21 11 ENE 48 0,0
30.05.2020 18:00:00 23,1 9,4 - - 18 10 NE 60 0,0
30.05.2020 17:00:00 23,5 7,4 - - 15 8 ESE 60 0,0
30.05.2020 16:00:00 23,4 6,4 - - 16 9 E 60 0,0
30.05.2020 15:00:00 22,7 7,3 - - 13 7 ESE 60 0,0
30.05.2020 14:00:00 22,6 7,4 - - 15 8 SE 54 0,0
30.05.2020 13:00:00 20,9 9,4 - - 16 9 ESE 60 0,0
30.05.2020 12:00:00 20,1 10,8 - - 15 8 E 60 0,0
30.05.2020 11:00:00 18,3 10,6 - - 13 7 ENE 60 0,0
30.05.2020 10:00:00 16,6 10,6 15,7 13,2 15 8 ENE 60 0,0
30.05.2020 09:00:00 14,7 9,9 - - 13 7 ENE 60 0,0
30.05.2020 08:00:00 12,3 8,5 - - 13 7 ENE 60 0,0
30.05.2020 07:00:00 10,8 7,7 - - 11 6 NE 60 0,0

tt = temperature
td = dewpoint
tt -20cm = temperature -20cm
tt -100cm = temperature -100cm
ff = wind speed
dd = wind direction
sd = sunshine duration
rr = precipitation

Next stations